Time;durP1;ratioP1;P1;durP2;ratioP2;P2;SDS_P1;SDS_P2;PMS_P1;PMS_P2;Temp;Humidity;BMP_temperature;BMP_pressure;BME280_temperature;BME280_humidity;BME280_pressure;Samples;Min_cycle;Max_cycle;Signal;HPM_P1;HPM_P2
2024/01/28 00:00:37;;;;;;;13.73;5.78;;;;;;;8.77;42.68;103032.44;4979661;28;20041;-68
2024/01/28 00:03:03;;;;;;;12.43;6.18;;;;;;;8.84;42.79;103043.75;4966269;28;20031;-69
2024/01/28 00:05:28;;;;;;;8.50;4.85;;;;;;;8.83;42.73;103045.53;4990037;28;20132;-68
2024/01/28 00:07:54;;;;;;;16.05;5.80;;;;;;;8.78;42.78;103027.03;4979503;28;20058;-68
2024/01/28 00:10:19;;;;;;;10.38;5.47;;;;;;;8.79;42.73;103031.44;4995554;28;20054;-68
2024/01/28 00:12:45;;;;;;;13.60;6.47;;;;;;;8.80;42.49;103026.97;4995808;28;20040;-69
2024/01/28 00:15:11;;;;;;;16.23;5.50;;;;;;;8.76;42.50;103017.34;4995727;28;20039;-69
2024/01/28 00:17:36;;;;;;;13.27;5.15;;;;;;;8.75;43.03;103015.59;4996481;28;20557;-68
2024/01/28 00:20:05;;;;;;;12.13;6.53;;;;;;;8.72;43.15;103013.94;4979771;28;20038;-69
2024/01/28 00:22:30;;;;;;;10.10;5.72;;;;;;;8.74;42.72;103022.75;4995741;28;20034;-68
2024/01/28 00:24:56;;;;;;;12.60;5.80;;;;;;;8.73;42.49;103020.16;4995415;28;20418;-68
2024/01/28 00:27:21;;;;;;;12.90;6.78;;;;;;;8.73;42.64;103017.47;4994981;28;20047;-68
2024/01/28 00:29:46;;;;;;;11.00;5.45;;;;;;;8.71;42.77;103009.50;4995367;28;20041;-68
2024/01/28 00:32:12;;;;;;;15.90;7.13;;;;;;;8.70;42.45;103010.47;4996938;28;20034;-68
2024/01/28 00:34:37;;;;;;;12.90;6.20;;;;;;;8.68;43.01;103014.13;4995368;28;20037;-69
2024/01/28 00:37:02;;;;;;;17.27;7.18;;;;;;;8.65;43.58;103000.91;4995091;28;20088;-69
2024/01/28 00:39:29;;;;;;;13.60;6.50;;;;;;;8.65;42.32;102993.72;4995120;28;20117;-68
2024/01/28 00:41:55;;;;;;;10.00;5.90;;;;;;;8.67;42.87;102994.56;4995328;28;20034;-68
2024/01/28 00:44:20;;;;;;;15.93;6.35;;;;;;;8.62;42.63;102991.22;4996335;28;20490;-68
2024/01/28 00:46:45;;;;;;;15.68;6.60;;;;;;;8.57;42.31;102979.00;4979155;28;20039;-68
2024/01/28 00:49:11;;;;;;;15.50;6.75;;;;;;;8.60;42.94;102982.38;4995334;28;20044;-68
2024/01/28 00:51:37;;;;;;;9.82;5.28;;;;;;;8.61;43.02;102985.91;4978024;28;20042;-68
2024/01/28 00:54:02;;;;;;;10.35;5.35;;;;;;;8.61;42.55;102973.44;4977784;28;20041;-68
2024/01/28 00:56:27;;;;;;;11.10;7.18;;;;;;;8.58;43.14;102972.69;4996168;28;20034;-68
2024/01/28 00:58:53;;;;;;;18.00;6.72;;;;;;;8.59;42.94;102975.31;4995211;28;20069;-68
2024/01/28 01:01:19;;;;;;;9.50;5.55;;;;;;;8.57;42.90;102965.63;4994919;28;20038;-68
2024/01/28 01:03:44;;;;;;;11.95;5.65;;;;;;;8.54;43.36;102955.91;4995135;28;20038;-68
2024/01/28 01:06:10;;;;;;;15.45;7.45;;;;;;;8.53;43.25;102958.66;4978950;28;20057;-68
2024/01/28 01:08:35;;;;;;;16.50;6.68;;;;;;;8.53;42.99;102964.00;4996480;28;20041;-68
2024/01/28 01:11:05;;;;;;;15.60;6.60;;;;;;;8.48;42.96;102966.88;4996242;28;20520;-68
2024/01/28 01:13:34;;;;;;;12.32;5.43;;;;;;;8.48;42.33;102969.56;4994766;28;20049;-68
2024/01/28 01:15:59;;;;;;;6.60;5.03;;;;;;;8.46;42.43;102974.06;4994687;28;20034;-68
2024/01/28 01:18:25;;;;;;;11.02;6.13;;;;;;;8.45;42.54;102969.69;4978030;28;20030;-68
2024/01/28 01:20:53;;;;;;;14.07;5.93;;;;;;;8.42;43.50;102964.47;4994720;28;20037;-69
2024/01/28 01:23:18;;;;;;;13.00;6.65;;;;;;;8.42;42.74;102972.47;4994915;28;20038;-68
2024/01/28 01:25:45;;;;;;;11.88;5.07;;;;;;;8.42;43.40;102976.94;4995770;28;20089;-68
2024/01/28 01:28:10;;;;;;;10.10;6.50;;;;;;;8.40;42.84;102970.78;4995154;28;20049;-68
2024/01/28 01:30:36;;;;;;;10.00;5.50;;;;;;;8.37;42.98;102962.91;4978616;28;20058;-69
2024/01/28 01:33:01;;;;;;;12.18;6.75;;;;;;;8.35;43.48;102959.44;4996220;28;20459;-68
2024/01/28 01:35:26;;;;;;;17.63;8.82;;;;;;;8.36;42.86;102962.03;4995141;28;20391;-68
2024/01/28 01:37:54;;;;;;;18.33;9.50;;;;;;;8.35;43.61;102954.94;4995763;28;20181;-69
2024/01/28 01:40:20;;;;;;;14.73;8.35;;;;;;;8.32;42.57;102947.06;4977616;28;20039;-69
2024/01/28 01:42:45;;;;;;;16.73;8.40;;;;;;;8.31;42.82;102948.00;4978054;28;20604;-68
2024/01/28 01:45:12;;;;;;;14.73;8.27;;;;;;;8.28;42.60;102940.13;4994285;28;20034;-69
2024/01/28 01:47:37;;;;;;;15.13;6.78;;;;;;;8.28;43.00;102942.78;4995184;28;20494;-68
2024/01/28 01:50:03;;;;;;;18.48;8.90;;;;;;;8.28;42.82;102947.25;4994107;28;20034;-68
2024/01/28 01:52:29;;;;;;;10.88;6.35;;;;;;;8.26;43.12;102939.28;4977868;28;20409;-69
2024/01/28 01:54:55;;;;;;;11.18;6.97;;;;;;;8.21;42.58;102935.91;4994551;28;20106;-69
2024/01/28 01:57:21;;;;;;;11.38;5.68;;;;;;;8.23;42.92;102941.22;4994246;28;20038;-69
2024/01/28 01:59:47;;;;;;;11.35;6.47;;;;;;;8.23;43.56;102943.88;4994203;28;20114;-68
2024/01/28 02:02:13;;;;;;;16.67;6.88;;;;;;;8.23;42.94;102943.88;4973506;28;20968;-69
2024/01/28 02:04:39;;;;;;;15.52;6.47;;;;;;;8.20;43.57;102939.53;4995183;28;20034;-70
2024/01/28 02:07:04;;;;;;;16.88;5.47;;;;;;;8.17;42.93;102929.84;4993703;28;20041;-69
2024/01/28 02:09:31;;;;;;;13.10;6.45;;;;;;;8.16;43.56;102928.09;4994718;28;20033;-69
2024/01/28 02:11:56;;;;;;;16.60;6.20;;;;;;;8.16;42.97;102932.56;4994541;28;20082;-69
2024/01/28 02:14:22;;;;;;;14.90;6.75;;;;;;;8.15;42.74;102939.69;4977128;28;20058;-68
2024/01/28 02:16:48;;;;;;;12.32;6.25;;;;;;;8.11;43.30;102945.22;4993675;28;20097;-69
2024/01/28 02:19:17;;;;;;;11.68;5.72;;;;;;;8.10;43.39;102946.16;4993209;28;20481;-68
2024/01/28 02:21:42;;;;;;;14.63;6.75;;;;;;;8.09;43.04;102947.09;4977050;28;20027;-69
2024/01/28 02:24:08;;;;;;;10.70;6.60;;;;;;;8.07;43.69;102940.94;4993339;28;20022;-68
2024/01/28 02:26:33;;;;;;;14.85;6.97;;;;;;;8.06;43.40;102937.41;4993168;28;20026;-69
2024/01/28 02:28:58;;;;;;;13.02;6.57;;;;;;;8.05;43.34;102934.81;4977824;28;20073;-69
2024/01/28 02:31:24;;;;;;;9.95;5.68;;;;;;;8.00;43.02;102931.44;4995212;28;20026;-69
2024/01/28 02:33:49;;;;;;;12.30;5.93;;;;;;;8.02;42.63;102929.59;4993837;28;20441;-68
2024/01/28 02:36:15;;;;;;;10.57;5.57;;;;;;;8.03;43.12;102923.31;4977571;28;20551;-69
2024/01/28 02:38:40;;;;;;;15.00;6.07;;;;;;;8.01;43.72;102915.38;4994752;28;20030;-68
2024/01/28 02:41:06;;;;;;;12.52;5.95;;;;;;;8.01;43.52;102912.69;4994806;28;20053;-68
2024/01/28 02:43:31;;;;;;;13.05;6.05;;;;;;;7.98;42.56;102906.63;4977117;28;20053;-68
2024/01/28 02:45:56;;;;;;;13.25;5.47;;;;;;;7.97;43.10;102907.56;4993202;28;20046;-68
2024/01/28 02:48:22;;;;;;;15.88;6.43;;;;;;;7.99;43.71;102911.03;4994456;28;20085;-68
2024/01/28 02:50:47;;;;;;;13.15;6.07;;;;;;;7.97;43.09;102904.88;4993240;28;20049;-68
2024/01/28 02:53:12;;;;;;;11.23;5.13;;;;;;;7.95;42.75;102896.09;4993233;28;20065;-68
2024/01/28 02:55:38;;;;;;;10.18;5.22;;;;;;;7.94;42.84;102903.22;4993131;28;20058;-68
2024/01/28 02:58:03;;;;;;;11.68;5.43;;;;;;;7.94;42.60;102889.00;4977010;28;20026;-68
2024/01/28 03:00:29;;;;;;;8.85;4.43;;;;;;;7.94;43.78;102883.66;4993118;28;20498;-68
2024/01/28 03:02:54;;;;;;;9.23;5.82;;;;;;;7.94;42.92;102889.00;4992822;28;20113;-68
2024/01/28 03:05:20;;;;;;;7.15;3.95;;;;;;;7.94;43.42;102886.31;4993083;28;20029;-68
2024/01/28 03:07:45;;;;;;;14.80;4.35;;;;;;;7.95;43.18;102883.63;4977052;28;20545;-68
2024/01/28 03:10:10;;;;;;;9.80;4.28;;;;;;;7.94;43.79;102873.00;4994932;28;20054;-68
2024/01/28 03:12:36;;;;;;;12.90;4.05;;;;;;;7.99;43.73;102871.00;4992476;28;20026;-68
2024/01/28 03:15:03;;;;;;;6.80;4.43;;;;;;;8.05;44.18;102876.09;4992824;28;20073;-68
2024/01/28 03:17:29;;;;;;;9.55;5.18;;;;;;;8.07;43.82;102866.22;4993906;28;20057;-68
2024/01/28 03:19:54;;;;;;;6.43;4.18;;;;;;;8.10;43.16;102858.09;4993551;28;20486;-68
2024/01/28 03:22:20;;;;;;;9.30;5.07;;;;;;;8.15;43.63;102856.13;4992285;28;20035;-68
2024/01/28 03:24:47;;;;;;;12.30;4.13;;;;;;;8.19;43.42;102857.72;4994805;28;20031;-68
2024/01/28 03:27:13;;;;;;;7.10;3.55;;;;;;;8.18;43.17;102845.28;4993694;28;20041;-68
2024/01/28 03:29:38;;;;;;;8.68;3.75;;;;;;;8.20;43.71;102849.66;4977136;28;20424;-67
2024/01/28 03:32:04;;;;;;;4.65;3.00;;;;;;;8.23;43.37;102847.78;4993492;28;20049;-68
2024/01/28 03:34:29;;;;;;;7.30;3.17;;;;;;;8.23;43.61;102854.00;4976707;28;20487;-68
2024/01/28 03:36:55;;;;;;;5.68;2.70;;;;;;;8.22;43.46;102844.22;4994426;28;20047;-68
2024/01/28 03:39:20;;;;;;;6.78;3.95;;;;;;;8.17;43.00;102838.22;4994776;28;20037;-68
2024/01/28 03:41:45;;;;;;;7.40;3.28;;;;;;;8.18;43.33;102843.47;4993345;28;20030;-68
2024/01/28 03:44:12;;;;;;;10.95;3.50;;;;;;;8.13;43.28;102836.59;4992855;28;20054;-68
2024/01/28 03:46:38;;;;;;;7.65;3.95;;;;;;;8.12;43.50;102840.22;4993972;28;20034;-68
2024/01/28 03:49:04;;;;;;;12.20;3.67;;;;;;;8.10;43.01;102842.94;4994038;28;20034;-69
2024/01/28 03:51:30;;;;;;;10.15;3.60;;;;;;;8.09;43.54;102851.03;4992909;28;20030;-68
2024/01/28 03:53:55;;;;;;;10.68;3.97;;;;;;;8.05;43.41;102846.72;4977183;28;20101;-68
2024/01/28 03:56:21;;;;;;;5.90;3.10;;;;;;;8.04;43.77;102850.34;4992447;28;20038;-68
2024/01/28 03:58:47;;;;;;;8.32;3.05;;;;;;;8.02;43.60;102855.75;4994129;28;20041;-68
2024/01/28 04:01:12;;;;;;;9.07;2.88;;;;;;;7.99;43.69;102855.84;4993599;28;20038;-68
2024/01/28 04:03:38;;;;;;;10.43;3.38;;;;;;;7.96;43.04;102850.66;4996498;28;20034;-68
2024/01/28 04:06:03;;;;;;;5.72;2.78;;;;;;;7.93;42.76;102849.88;4979337;28;20038;-68
2024/01/28 04:08:29;;;;;;;5.55;3.60;;;;;;;7.88;42.92;102851.88;4996480;28;20482;-68
2024/01/28 04:10:54;;;;;;;9.15;4.30;;;;;;;7.86;42.82;102843.09;4996720;28;20069;-68
2024/01/28 04:13:19;;;;;;;17.75;5.25;;;;;;;7.84;43.59;102851.16;4997070;28;20069;-68
2024/01/28 04:15:45;;;;;;;9.95;4.97;;;;;;;7.83;43.07;102848.53;4995161;28;20518;-68
2024/01/28 04:18:10;;;;;;;7.18;4.10;;;;;;;7.82;43.79;102857.47;4979268;28;20048;-68
2024/01/28 04:20:35;;;;;;;9.32;3.83;;;;;;;7.79;43.35;102842.44;4995581;28;20031;-68
2024/01/28 04:23:01;;;;;;;5.80;3.28;;;;;;;7.77;43.50;102840.78;4997098;28;20407;-68
2024/01/28 04:25:27;;;;;;;9.18;3.10;;;;;;;7.78;42.87;102839.88;4995614;28;20450;-69
2024/01/28 04:27:52;;;;;;;9.07;2.42;;;;;;;7.79;43.53;102841.63;4997096;28;20038;-68
2024/01/28 04:30:18;;;;;;;5.20;2.60;;;;;;;7.76;43.63;102841.72;4995643;28;20120;-69
2024/01/28 04:32:44;;;;;;;9.40;3.22;;;;;;;7.73;43.13;102834.72;4995583;28;20034;-68
2024/01/28 04:35:12;;;;;;;11.35;2.45;;;;;;;7.75;42.94;102834.66;4995929;28;20034;-68
2024/01/28 04:37:39;;;;;;;4.90;3.33;;;;;;;7.77;43.90;102833.66;4995718;28;20057;-68
2024/01/28 04:40:06;;;;;;;9.30;2.72;;;;;;;7.74;43.36;102822.22;4994258;28;20494;-68
2024/01/28 04:42:31;;;;;;;5.70;3.28;;;;;;;7.77;43.52;102833.66;4978833;28;20034;-68
2024/01/28 04:44:57;;;;;;;13.95;3.63;;;;;;;7.76;43.31;102831.06;4997216;28;20046;-68
2024/01/28 04:47:22;;;;;;;8.52;2.30;;;;;;;7.74;42.94;102832.91;4995447;28;20054;-69
2024/01/28 04:49:48;;;;;;;4.80;2.80;;;;;;;7.76;43.92;102833.72;4995482;28;20026;-68
2024/01/28 04:52:13;;;;;;;6.65;2.60;;;;;;;7.74;43.33;102827.56;4996540;28;20038;-68
2024/01/28 04:54:40;;;;;;;9.65;3.45;;;;;;;7.71;43.81;102817.91;4978794;28;20064;-68
2024/01/28 04:57:05;;;;;;;5.63;2.80;;;;;;;7.74;43.15;102822.22;4978989;28;20062;-69
2024/01/28 04:59:32;;;;;;;8.75;3.58;;;;;;;7.75;43.96;102823.97;4996554;28;20517;-68
2024/01/28 05:01:58;;;;;;;7.88;2.60;;;;;;;7.74;44.02;102816.91;4995369;28;20429;-68
2024/01/28 05:04:23;;;;;;;4.93;2.85;;;;;;;7.74;42.94;102812.44;4978645;28;20536;-69
2024/01/28 05:06:49;;;;;;;3.50;2.13;;;;;;;7.71;43.95;102801.88;4994819;28;20045;-69
2024/01/28 05:09:16;;;;;;;5.68;2.28;;;;;;;7.72;43.01;102802.75;4995692;28;20084;-69
2024/01/28 05:11:42;;;;;;;9.48;2.53;;;;;;;7.72;43.73;102813.44;4994700;28;20473;-69
2024/01/28 05:14:07;;;;;;;6.70;2.88;;;;;;;7.69;42.85;102809.09;4994651;28;20069;-69
2024/01/28 05:16:33;;;;;;;7.60;2.55;;;;;;;7.70;43.86;102805.50;4995784;28;20085;-68
2024/01/28 05:19:01;;;;;;;4.95;2.40;;;;;;;7.70;43.75;102809.97;4995960;28;20038;-69
2024/01/28 05:21:27;;;;;;;7.53;2.30;;;;;;;7.69;43.36;102810.88;4996320;28;20042;-68
2024/01/28 05:23:52;;;;;;;6.13;2.88;;;;;;;7.70;42.99;102815.31;4995097;28;20034;-68
2024/01/28 05:26:17;;;;;;;6.47;2.30;;;;;;;7.69;43.04;102808.22;4995841;28;20101;-68
2024/01/28 05:28:45;;;;;;;8.23;2.55;;;;;;;7.69;43.88;102801.09;4994898;28;20038;-69
2024/01/28 05:31:10;;;;;;;7.70;2.63;;;;;;;7.67;44.01;102796.75;4995995;28;20038;-68
2024/01/28 05:33:37;;;;;;;5.88;2.92;;;;;;;7.64;42.64;102800.41;4994271;28;20387;-68
2024/01/28 05:36:15;;;;;;;7.07;2.60;;;;;;;7.61;43.36;102793.41;4978596;28;20057;-68
2024/01/28 05:38:41;;;;;;;6.85;3.03;;;;;;;7.56;43.49;102787.41;4995101;28;20038;-69
2024/01/28 05:41:07;;;;;;;11.40;2.75;;;;;;;7.57;42.90;102778.44;4978167;28;20165;-68
2024/01/28 05:43:33;;;;;;;6.32;3.08;;;;;;;7.54;42.92;102778.56;4978065;28;20034;-68
2024/01/28 05:45:59;;;;;;;5.03;2.28;;;;;;;7.55;43.29;102769.66;4995513;28;20034;-68
2024/01/28 05:48:25;;;;;;;4.55;2.53;;;;;;;7.52;43.60;102764.44;4993949;28;20038;-68
2024/01/28 05:50:50;;;;;;;6.53;1.95;;;;;;;7.52;43.62;102779.56;4994047;28;20030;-68
2024/01/28 05:53:15;;;;;;;6.40;2.33;;;;;;;7.51;43.06;102776.03;4995431;28;20415;-69
2024/01/28 05:55:41;;;;;;;8.77;2.40;;;;;;;7.49;42.74;102764.56;4994614;28;20042;-68
2024/01/28 05:58:06;;;;;;;3.38;2.10;;;;;;;7.47;43.63;102777.09;4994897;28;20454;-68
2024/01/28 06:00:31;;;;;;;8.32;2.33;;;;;;;7.45;43.30;102767.44;4995147;28;20038;-68
2024/01/28 06:02:57;;;;;;;9.43;3.17;;;;;;;7.42;43.71;102768.44;4977951;28;20038;-68
2024/01/28 06:05:22;;;;;;;8.60;2.88;;;;;;;7.43;43.88;102778.13;4993915;28;20391;-68
2024/01/28 06:07:48;;;;;;;7.00;2.88;;;;;;;7.44;44.25;102773.69;4977800;28;20429;-68
2024/01/28 06:10:13;;;;;;;9.80;3.35;;;;;;;7.43;43.42;102770.13;4994865;28;20046;-68
2024/01/28 06:12:38;;;;;;;7.70;2.70;;;;;;;7.44;43.76;102755.03;4993988;28;20058;-68
2024/01/28 06:15:08;;;;;;;7.53;2.22;;;;;;;7.40;42.97;102754.25;4995338;28;20130;-69
2024/01/28 06:17:36;;;;;;;3.88;2.13;;;;;;;7.44;42.91;102757.69;4993782;28;20517;-68
2024/01/28 06:20:05;;;;;;;6.50;2.08;;;;;;;7.45;43.08;102762.09;4994828;28;20465;-68
2024/01/28 06:22:30;;;;;;;11.75;3.00;;;;;;;7.42;43.65;102749.75;4994322;28;20489;-68
2024/01/28 06:24:56;;;;;;;5.32;2.15;;;;;;;7.46;43.82;102754.03;4994284;28;20040;-68
2024/01/28 06:27:21;;;;;;;7.38;2.42;;;;;;;7.44;43.48;102739.91;4993673;28;20328;-68
2024/01/28 06:29:47;;;;;;;5.57;2.40;;;;;;;7.47;43.40;102752.22;4994968;28;20038;-68
2024/01/28 06:32:13;;;;;;;6.45;2.28;;;;;;;7.47;44.06;102733.56;4994797;28;20065;-68
2024/01/28 06:34:38;;;;;;;7.30;2.55;;;;;;;7.50;43.74;102729.00;4993704;28;20461;-69
2024/01/28 06:37:03;;;;;;;5.32;2.40;;;;;;;7.53;43.34;102733.31;4993462;28;20121;-69
2024/01/28 06:39:29;;;;;;;11.25;2.70;;;;;;;7.54;43.52;102721.72;4976774;28;20042;-69
2024/01/28 06:41:54;;;;;;;3.92;2.08;;;;;;;7.58;43.50;102721.53;4977595;28;20177;-69
2024/01/28 06:44:19;;;;;;;10.30;2.40;;;;;;;7.58;43.73;102721.53;4994055;28;20498;-69
2024/01/28 06:46:45;;;;;;;2.63;2.13;;;;;;;7.60;44.24;102719.66;4994128;28;20042;-69
2024/01/28 06:49:10;;;;;;;4.22;2.10;;;;;;;7.62;43.48;102720.47;4993523;28;20042;-69
2024/01/28 06:51:41;;;;;;;5.50;2.10;;;;;;;7.61;44.03;102726.75;4978331;28;20041;-69
2024/01/28 06:54:06;;;;;;;3.78;2.35;;;;;;;7.62;43.23;102728.47;4994298;28;20078;-69
2024/01/28 06:56:32;;;;;;;7.82;2.15;;;;;;;7.62;43.96;102727.63;4995950;28;20034;-69
2024/01/28 06:58:57;;;;;;;5.32;2.10;;;;;;;7.64;44.04;102725.75;4995053;28;20141;-70
2024/01/28 07:01:22;;;;;;;2.40;1.67;;;;;;;7.66;43.40;102726.53;4996084;28;20038;-70
2024/01/28 07:03:48;;;;;;;3.92;1.90;;;;;;;7.67;43.32;102722.97;4978302;28;20031;-69
2024/01/28 07:06:16;;;;;;;9.98;2.45;;;;;;;7.70;43.58;102730.84;4978878;28;20088;-69
2024/01/28 07:08:41;;;;;;;4.95;1.60;;;;;;;7.69;43.90;102729.09;4979014;28;20034;-68
2024/01/28 07:11:07;;;;;;;3.65;2.58;;;;;;;7.73;43.33;102729.84;4992724;28;20053;-69
2024/01/28 07:13:33;;;;;;;4.03;2.08;;;;;;;7.70;43.04;102721.97;4976764;28;20151;-69
2024/01/28 07:15:58;;;;;;;9.05;3.15;;;;;;;7.73;43.26;102714.69;4993250;28;20491;-69
2024/01/28 07:18:23;;;;;;;4.82;2.13;;;;;;;7.72;44.18;102722.75;4993112;28;20506;-68
2024/01/28 07:20:49;;;;;;;4.50;2.53;;;;;;;7.75;43.98;102717.28;4992716;28;20038;-69
2024/01/28 07:23:14;;;;;;;9.18;2.22;;;;;;;7.73;43.56;102708.50;4976944;28;20031;-68
2024/01/28 07:25:40;;;;;;;5.72;2.42;;;;;;;7.77;43.38;102710.09;4993360;28;20090;-69
2024/01/28 07:28:06;;;;;;;8.60;2.70;;;;;;;7.78;43.54;102706.50;4994359;28;20409;-68
2024/01/28 07:30:31;;;;;;;5.00;2.58;;;;;;;7.79;43.28;102695.75;4992943;28;20042;-68
2024/01/28 07:32:57;;;;;;;5.55;2.15;;;;;;;7.80;44.20;102694.81;4992890;28;20039;-68
2024/01/28 07:35:22;;;;;;;4.97;2.05;;;;;;;7.78;42.97;102699.38;4995052;28;20044;-68
2024/01/28 07:37:48;;;;;;;4.15;2.00;;;;;;;7.78;43.65;102690.50;4996348;28;20034;-67
2024/01/28 07:40:14;;;;;;;4.43;2.35;;;;;;;7.77;43.73;102696.75;4999292;28;20034;-68
2024/01/28 07:42:39;;;;;;;14.38;3.78;;;;;;;7.76;43.06;102703.03;4999381;28;20076;-68
2024/01/28 07:45:05;;;;;;;8.63;2.17;;;;;;;7.75;43.16;102695.94;4999264;28;20486;-68
2024/01/28 07:47:31;;;;;;;7.78;2.08;;;;;;;7.78;43.12;102698.50;4981428;28;20030;-68
2024/01/28 07:49:59;;;;;;;10.48;2.72;;;;;;;7.78;43.57;102703.81;4999507;28;20117;-68
2024/01/28 07:52:24;;;;;;;4.25;2.28;;;;;;;7.80;43.45;102696.63;4998938;28;20061;-68
2024/01/28 07:54:49;;;;;;;6.28;2.22;;;;;;;7.80;43.62;102689.50;4998950;28;20406;-68
2024/01/28 07:57:14;;;;;;;3.13;1.50;;;;;;;7.86;43.64;102696.38;4997102;28;20034;-68
2024/01/28 07:59:40;;;;;;;4.00;2.00;;;;;;;7.85;42.63;102687.47;4979423;28;20379;-68
2024/01/28 08:02:05;;;;;;;7.32;1.83;;;;;;;7.89;43.08;102696.22;4998240;28;20030;-69
2024/01/28 08:04:30;;;;;;;2.72;1.80;;;;;;;7.97;43.70;102702.97;4997057;28;20030;-68
2024/01/28 08:06:57;;;;;;;7.20;1.83;;;;;;;7.98;42.95;102693.16;4979754;28;20414;-68
2024/01/28 08:09:22;;;;;;;7.22;1.95;;;;;;;8.04;43.19;102691.09;4978922;28;20061;-68
2024/01/28 08:11:49;;;;;;;5.00;1.85;;;;;;;8.11;43.48;102691.69;4996519;28;20049;-68
2024/01/28 08:14:14;;;;;;;5.35;2.22;;;;;;;8.15;43.71;102693.31;4964175;28;20045;-68
2024/01/28 08:16:39;;;;;;;7.00;2.20;;;;;;;8.17;43.40;102683.41;4997173;28;20034;-68
2024/01/28 08:19:05;;;;;;;7.72;2.83;;;;;;;8.22;42.99;102686.75;5000630;28;20049;-68
2024/01/28 08:21:31;;;;;;;3.28;2.17;;;;;;;8.26;43.07;102685.69;4997419;28;20026;-68
2024/01/28 08:23:57;;;;;;;4.00;1.60;;;;;;;8.28;42.96;102678.50;4996490;28;20027;-68
2024/01/28 08:26:22;;;;;;;7.10;2.08;;;;;;;8.29;42.98;102666.03;4978195;28;20041;-69
2024/01/28 08:28:47;;;;;;;8.90;1.65;;;;;;;8.29;43.51;102682.88;4978287;28;20034;-69
2024/01/28 08:31:13;;;;;;;7.22;2.38;;;;;;;8.23;43.55;102661.78;4994269;28;20486;-68
2024/01/28 08:33:38;;;;;;;5.10;2.22;;;;;;;8.33;43.53;102676.47;4995469;28;20031;-68
2024/01/28 08:36:03;;;;;;;3.95;1.83;;;;;;;8.37;43.80;102672.75;4994081;28;20034;-68
2024/01/28 08:38:30;;;;;;;5.53;1.92;;;;;;;8.44;43.58;102676.00;4994076;28;20031;-68
2024/01/28 08:40:56;;;;;;;4.63;1.80;;;;;;;8.50;43.51;102671.25;4994300;28;20030;-68
2024/01/28 08:43:21;;;;;;;7.38;2.20;;;;;;;8.55;43.26;102674.56;4958834;28;20053;-68
2024/01/28 08:45:46;;;;;;;4.88;2.00;;;;;;;8.63;43.33;102675.06;4974940;28;20034;-68
2024/01/28 08:48:11;;;;;;;3.83;1.90;;;;;;;8.70;43.33;102671.19;4993795;28;20062;-69
2024/01/28 08:50:40;;;;;;;3.28;2.10;;;;;;;8.78;43.78;102665.47;4978314;28;20038;-68
2024/01/28 08:53:06;;;;;;;4.43;2.25;;;;;;;8.87;43.75;102665.06;4994279;28;20038;-69
2024/01/28 08:55:31;;;;;;;3.10;1.80;;;;;;;9.04;42.94;102672.25;4994189;28;20161;-69
2024/01/28 08:57:57;;;;;;;8.27;1.85;;;;;;;9.17;43.67;102662.69;4994068;28;20022;-69
2024/01/28 09:00:22;;;;;;;3.90;1.88;;;;;;;9.38;43.28;102667.84;4994267;28;20030;-69
2024/01/28 09:02:47;;;;;;;4.05;1.40;;;;;;;9.56;43.26;102665.19;4994477;28;20076;-70
2024/01/28 09:05:13;;;;;;;4.22;1.70;;;;;;;9.74;42.92;102661.59;4994427;28;20032;-70
2024/01/28 09:07:40;;;;;;;6.88;1.45;;;;;;;9.92;43.13;102658.81;4994194;28;20026;-70
2024/01/28 09:10:06;;;;;;;4.53;1.90;;;;;;;10.15;43.08;102656.78;4993752;28;20109;-68
2024/01/28 09:12:32;;;;;;;3.65;1.92;;;;;;;10.38;42.70;102645.69;4995494;28;20033;-70
2024/01/28 09:14:57;;;;;;;5.30;2.05;;;;;;;10.63;42.95;102655.94;4994450;28;20022;-68
2024/01/28 09:17:22;;;;;;;4.00;2.10;;;;;;;10.86;42.34;102650.16;4994354;28;20026;-68
2024/01/28 09:19:48;;;;;;;5.38;1.90;;;;;;;11.11;42.68;102654.03;4994225;28;20033;-68
2024/01/28 09:22:13;;;;;;;7.63;2.45;;;;;;;11.40;42.11;102648.78;4994385;28;20029;-68
2024/01/28 09:24:39;;;;;;;7.43;1.75;;;;;;;11.66;41.60;102645.44;4993776;28;20029;-66
2024/01/28 09:27:04;;;;;;;2.70;1.60;;;;;;;11.87;41.58;102638.81;4995041;28;20049;-70
2024/01/28 09:29:30;;;;;;;2.65;1.67;;;;;;;12.07;41.45;102640.28;4995140;28;20030;-69
2024/01/28 09:31:56;;;;;;;4.57;1.83;;;;;;;12.32;42.04;102644.97;4993812;28;20085;-68
2024/01/28 09:34:23;;;;;;;6.72;1.88;;;;;;;12.59;41.58;102649.47;4995611;28;20026;-67
2024/01/28 09:36:49;;;;;;;3.80;2.13;;;;;;;12.85;42.06;102645.13;4993507;28;20506;-68
2024/01/28 09:39:15;;;;;;;2.75;1.80;;;;;;;13.11;41.73;102647.03;4977524;28;20037;-68
2024/01/28 09:41:56;;;;;;;4.72;2.08;;;;;;;13.39;41.55;102636.16;4995060;28;20097;-68
2024/01/28 09:44:21;;;;;;;5.22;1.77;;;;;;;13.66;40.51;102628.03;4993444;28;20042;-68
2024/01/28 09:46:47;;;;;;;5.72;2.25;;;;;;;13.96;41.01;102636.69;4994188;28;20029;-68
2024/01/28 09:49:13;;;;;;;3.15;2.15;;;;;;;14.27;40.64;102624.59;4977105;28;20449;-68
2024/01/28 09:51:39;;;;;;;8.55;2.20;;;;;;;14.65;40.00;102621.03;4993537;28;20034;-67
2024/01/28 09:54:04;;;;;;;4.50;2.58;;;;;;;15.05;39.68;102622.50;4976939;28;20101;-68
2024/01/28 09:56:31;;;;;;;4.95;2.53;;;;;;;15.48;39.88;102621.06;4982195;28;20030;-68
2024/01/28 09:58:56;;;;;;;6.28;2.92;;;;;;;15.87;39.79;102617.13;4957679;28;20510;-68
2024/01/28 10:01:24;;;;;;;3.70;2.28;;;;;;;16.29;40.15;102612.88;4957140;28;20046;-68
2024/01/28 10:03:50;;;;;;;4.85;1.85;;;;;;;16.72;39.40;102603.03;4974062;28;20540;-68
2024/01/28 10:06:15;;;;;;;17.25;3.38;;;;;;;17.15;38.84;102602.19;4986208;28;20134;-68
2024/01/28 10:08:41;;;;;;;9.77;2.28;;;;;;;17.54;38.40;102598.84;4960221;28;20118;-67
2024/01/28 10:11:06;;;;;;;4.68;2.50;;;;;;;17.94;38.29;102602.56;4974913;28;20035;-68
2024/01/28 10:13:32;;;;;;;5.35;2.10;;;;;;;18.28;37.96;102603.19;4973441;28;20031;-68
2024/01/28 10:15:58;;;;;;;10.38;2.75;;;;;;;18.59;37.69;102606.75;4973578;28;20034;-68
2024/01/28 10:18:24;;;;;;;4.40;2.10;;;;;;;18.85;37.44;102607.97;4983021;28;20548;-68
2024/01/28 10:20:49;;;;;;;4.72;1.88;;;;;;;19.05;37.17;102593.44;4993222;28;20035;-68
2024/01/28 10:23:15;;;;;;;5.05;2.05;;;;;;;19.22;36.54;102599.16;4993994;28;20065;-68
2024/01/28 10:25:41;;;;;;;7.90;2.03;;;;;;;19.35;37.00;102595.16;4993931;28;20398;-67
2024/01/28 10:28:06;;;;;;;8.40;2.03;;;;;;;19.48;36.65;102592.19;4961163;28;20118;-68
2024/01/28 10:30:33;;;;;;;2.88;1.73;;;;;;;19.61;36.24;102593.63;4983109;28;20030;-68
2024/01/28 10:32:58;;;;;;;6.32;2.08;;;;;;;19.74;36.42;102588.72;4980984;28;20039;-68
2024/01/28 10:35:25;;;;;;;4.82;1.73;;;;;;;19.86;35.49;102586.69;4973542;28;20066;-67
2024/01/28 10:37:55;;;;;;;3.40;1.38;;;;;;;19.99;35.89;102587.22;4973460;28;20035;-68
2024/01/28 10:40:21;;;;;;;5.47;2.20;;;;;;;20.15;36.12;102587.50;4968930;28;20097;-68
2024/01/28 10:42:48;;;;;;;7.03;2.15;;;;;;;20.31;35.13;102576.84;4973172;28;20483;-68
2024/01/28 10:45:17;;;;;;;6.55;2.10;;;;;;;20.50;34.84;102575.03;4973152;28;20414;-68
2024/01/28 10:47:45;;;;;;;2.08;1.80;;;;;;;20.64;35.07;102578.13;4973165;28;20030;-68
2024/01/28 10:50:13;;;;;;;4.15;1.70;;;;;;;20.77;35.57;102575.88;4973285;28;20031;-68
2024/01/28 10:52:40;;;;;;;5.25;2.25;;;;;;;20.85;35.00;102572.41;4975448;28;20186;-67
2024/01/28 10:55:05;;;;;;;4.20;1.95;;;;;;;20.90;34.77;102560.03;4993445;28;20461;-67
2024/01/28 10:57:35;;;;;;;4.20;2.00;;;;;;;20.94;34.52;102557.84;4993443;28;20514;-68
2024/01/28 11:00:05;;;;;;;3.72;1.75;;;;;;;20.94;34.98;102557.00;4992307;28;20035;-68
2024/01/28 11:02:30;;;;;;;6.15;2.33;;;;;;;20.79;34.98;102545.78;4988481;28;20115;-68
2024/01/28 11:04:56;;;;;;;5.75;1.90;;;;;;;20.84;35.25;102541.59;4966581;28;20094;-67
2024/01/28 11:07:22;;;;;;;5.15;2.78;;;;;;;20.97;34.28;102541.19;4956672;28;20034;-68
2024/01/28 11:09:48;;;;;;;2.95;2.28;;;;;;;21.09;34.69;102533.69;4972714;28;20031;-67
2024/01/28 11:12:13;;;;;;;6.75;1.67;;;;;;;21.16;33.78;102530.16;4959040;28;20050;-67
2024/01/28 11:14:39;;;;;;;3.90;1.60;;;;;;;21.25;33.71;102533.81;4960649;28;20434;-68
2024/01/28 11:17:05;;;;;;;2.83;1.80;;;;;;;21.31;33.38;102528.59;4979371;28;20047;-68
2024/01/28 11:19:30;;;;;;;3.88;1.70;;;;;;;21.39;33.34;102517.75;4996472;28;20126;-68
2024/01/28 11:21:57;;;;;;;3.88;1.20;;;;;;;21.48;34.08;102521.41;4982353;28;20491;-68